• Join FlightAware (Why Join?)
  • Login
  • US Flag 
04:08PM EDT


 

Airport Tracker/Info


-or-


 

Live Flight TrackerFlight Track Log ✈ DAL1981 ✈ 15-May-2013 ✈ KALB - KATL

Flight Track Log - Related Links

Times and Time Zones

All times are in EDT time to prevent confusion due to time zone crossing. See the DAL1981 flight status page for this flight to view local times or setup timezone preferences in your user account.

Time Position Orientation Groundspeed Altitude Reporting Facility
EDT Latitude Longitude Course Direction KTS MPH feet Rate Location/Type
06:18AM 42.7653 -73.8061 180° South 160 184 1,300  Level Boston Center
06:19AM 42.8314 -73.8472 335° Northwest 254 292 3,700 2,460 Climbing Boston Center
06:19AM 42.8539 -73.8761 317° Northwest 267 307 5,500 3,420 Climbing Boston Center
06:20AM 42.8947 -73.9478 308° West 255 293 9,200 3,360 Climbing Boston Center
06:21AM 42.4561 -74.2111 198° South  Level Estimated
06:21AM 42.8808 -74.0467 259° West 235 270 12,300  Level Boston Center
06:22AM 42.3678 -74.1339 147° Southeast  Level FlightAware Approximate
06:22AM 42.8014 -74.0728 194° South 230 265 14,100  Level Boston Center
06:23AM 42.2951 -74.2363 180° South  Level Estimated
06:23AM 42.6992 -74.0672 178° South 272 313 16,500  Level Boston Center
06:24AM 42.5764 -74.0556 176° South 362 417 18,900 1,860 Climbing Boston Center
06:25AM 42.4744 -74.0503 178° South 389 448 20,300 1,740 Climbing Boston Center
06:26AM 42.3558 -74.0444 178° South 413 475 22,400 1,800 Climbing Boston Center
06:27AM 42.2267 -74.0383 178° South 444 511 23,900 1,560 Climbing Boston Center
06:28AM 42.0994 -74.0461 183° South 456 525 25,600 1,440 Climbing Boston Center
06:29AM 41.9678 -74.0539 183° South 466 536 26,800 840 Climbing Boston Center
06:30AM 41.8594 -74.0653 184° South 478 550 27,300 1,200 Climbing Boston Center
06:31AM 41.7061 -74.1392 200° South 485 558 29,300 1,680 Climbing Boston Center
06:34AM 41.4608 -74.2950 205° Southwest 457 526 32,700 1,380 Climbing New York Center
06:35AM 41.3419 -74.3717 206° Southwest 457 526 33,700 1,080 Climbing New York Center
06:36AM 41.2233 -74.4425 204° Southwest 464 534 34,900 960 Climbing New York Center
06:37AM 41.1086 -74.5133 205° Southwest 464 534 35,600 540 Climbing New York Center
06:38AM 41.0097 -74.6069 216° Southwest 464 534 36,000 180 Climbing New York Center
06:39AM 40.9231 -74.7119 222° Southwest 443 510 36,000  Level New York Center
06:40AM 40.8342 -74.8108 220° Southwest 431 496 36,000  Level New York Center
06:41AM 40.7492 -74.9208 224° Southwest 426 490 36,000  Level New York Center
06:42AM 40.6619 -75.0306 224° Southwest 432 497 36,000  Level New York Center
06:43AM 40.5869 -75.1433 229° Southwest 427 491 36,000  Level New York Center
06:44AM 40.5139 -75.2589 230° Southwest 422 486 36,000  Level New York Center
06:45AM 40.4406 -75.3769 231° Southwest 417 480 36,000  Level New York Center
06:46AM 40.3628 -75.4942 229° Southwest 423 487 36,000  Level New York Center
06:47AM 40.2872 -75.6117 230° Southwest 423 487 36,000  Level New York Center
06:48AM 40.2114 -75.7314 230° Southwest 423 487 36,000  Level New York Center
06:49AM 40.1333 -75.8533 230° Southwest 434 499 36,000  Level New York Center
06:50AM 40.0553 -75.9697 229° Southwest 434 499 36,000  Level New York Center
06:51AM 39.9789 -76.0914 231° Southwest 434 499 36,000  Level New York Center
06:52AM 39.8875 -76.2197 227° Southwest 439 505 36,000  Level New York Center
06:53AM 39.8092 -76.3381 229° Southwest 444 511 36,000  Level New York Center
06:53AM 39.7733 -76.3961 231° Southwest 439 505 36,000  Level Washington Center
06:54AM 39.6975 -76.5167 231° Southwest 425 489 36,000  Level Washington Center
06:55AM 39.6111 -76.6339 226° Southwest 436 502 36,000  Level Washington Center
06:56AM 39.5331 -76.7511 229° Southwest 441 507 36,000  Level Washington Center
06:57AM 39.4569 -76.8656 229° Southwest 436 502 36,000  Level Washington Center
06:58AM 39.3806 -76.9797 229° Southwest 431 496 36,000  Level Washington Center
06:59AM 39.3042 -77.0964 230° Southwest 431 496 36,000  Level Washington Center
07:00AM 39.2256 -77.2100 228° Southwest 431 496 36,000  Level Washington Center
07:01AM 39.1489 -77.3233 229° Southwest 426 490 36,000  Level Washington Center
07:02AM 39.0681 -77.4417 229° Southwest 426 490 36,000  Level Washington Center
07:03AM 38.9911 -77.5572 229° Southwest 432 497 36,000  Level Washington Center
07:04AM 38.9186 -77.6619 228° Southwest 432 497 36,000  Level Washington Center
07:05AM 38.8328 -77.7875 229° Southwest 432 497 36,000  Level Washington Center
07:06AM 38.7581 -77.8944 228° Southwest 438 504 36,000  Level Washington Center
07:07AM 38.6786 -78.0117 229° Southwest 438 504 36,000  Level Washington Center
07:08AM 38.5989 -78.1258 228° Southwest 438 504 36,000  Level Washington Center
07:09AM 38.5194 -78.2372 228° Southwest 433 498 36,000  Level Washington Center
07:10AM 38.4397 -78.3511 228° Southwest 428 493 36,000  Level Washington Center
07:11AM 38.3600 -78.4647 228° Southwest 433 498 36,000  Level Washington Center
07:12AM 38.2800 -78.5806 229° Southwest 433 498 36,000  Level Washington Center
07:13AM 38.2042 -78.6939 230° Southwest 427 491 36,000  Level Washington Center
07:14AM 38.1242 -78.8014 227° Southwest 427 491 36,000  Level Washington Center
07:15AM 38.0439 -78.9167 229° Southwest 432 497 36,000  Level Washington Center
07:16AM 37.9636 -79.0239 226° Southwest 427 491 36,000  Level Washington Center
07:17AM 37.8808 -79.1411 228° Southwest 427 491 36,000  Level Washington Center
07:18AM 37.8003 -79.2528 228° Southwest 427 491 36,000  Level Washington Center
07:19AM 37.7242 -79.3594 228° Southwest 427 491 36,000  Level Washington Center
07:20AM 37.6522 -79.4556 227° Southwest 427 491 36,000  Level Washington Center
07:21AM 37.5669 -79.5717 227° Southwest 421 484 36,000  Level Washington Center
07:22AM 37.4969 -79.6675 227° Southwest 421 484 36,000  Level Washington Center
07:23AM 37.4094 -79.7911 228° Southwest 421 484 36,000  Level Washington Center
07:24AM 37.3328 -79.8939 227° Southwest 427 491 36,000  Level Washington Center
07:26AM 37.1533 -80.1328 227° Southwest 410 472 36,000  Level Atlanta Center
07:27AM 37.0756 -80.2381 227° Southwest 410 472 36,000  Level Atlanta Center
07:28AM 36.9953 -80.3458 227° Southwest 410 472 36,000  Level Atlanta Center
07:29AM 36.9069 -80.4617 226° Southwest 410 472 36,000  Level Atlanta Center
07:30AM 36.8308 -80.5689 228° Southwest 410 472 36,000  Level Atlanta Center
07:31AM 36.7644 -80.6519 225° Southwest 410 472 36,000  Level Atlanta Center
07:32AM 36.6761 -80.7775 229° Southwest 405 466 36,000  Level Atlanta Center
07:33AM 36.5953 -80.8817 226° Southwest 410 472 36,000  Level Atlanta Center
07:34AM 36.5228 -80.9750 226° Southwest 410 472 36,000  Level Atlanta Center
07:35AM 36.4439 -81.0811 227° Southwest 410 472 36,000  Level Atlanta Center
07:36AM 36.3672 -81.1844 227° Southwest 405 466 36,000  Level Atlanta Center
07:37AM 36.2881 -81.2878 226° Southwest 405 466 36,000  Level Atlanta Center
07:38AM 36.2111 -81.3883 227° Southwest 405 466 36,000  Level Atlanta Center
07:39AM 36.1319 -81.4961 228° Southwest 411 473 36,000 -60 Level Atlanta Center
07:40AM 36.0508 -81.6014 226° Southwest 416 479 35,900  Descending Atlanta Center
07:41AM 35.9714 -81.7039 226° Southwest 416 479 36,000  Climbing Atlanta Center
07:42AM 35.8919 -81.8061 226° Southwest 416 479 35,900 -480 Descending Atlanta Center
07:43AM 35.8125 -81.9083 226° Southwest 416 479 35,100 -480 Descending Atlanta Center
07:44AM 35.7225 -82.0206 225° Southwest 411 473 35,000 -60 Descending Atlanta Center
07:45AM 35.6428 -82.1247 227° Southwest 411 473 35,000  Level Atlanta Center
07:46AM 35.5608 -82.2289 226° Southwest 416 479 35,000 -420 Level Atlanta Center
07:47AM 35.4811 -82.3300 226° Southwest 416 479 34,200 -1,320 Descending Atlanta Center
07:48AM 35.4011 -82.4286 225° Southwest 411 473 32,400 -1,800 Descending Atlanta Center
07:49AM 35.3250 -82.5242 226° Southwest 398 458 30,600 -1,800 Descending Atlanta Center
07:50AM 35.2489 -82.6119 223° Southwest 385 443 28,900 -1,620 Descending Atlanta Center
07:51AM 35.1769 -82.6972 224° Southwest 374 430 27,400 -960 Descending Atlanta Center
07:52AM 35.1025 -82.7769 221° Southwest 368 423 27,000 -240 Descending Atlanta Center
07:53AM 35.0283 -82.8567 221° Southwest 363 418 27,000  Level Atlanta Center
07:54AM 34.9539 -82.9389 222° Southwest 363 418 27,000 -360 Level Atlanta Center
07:55AM 34.8856 -83.0133 222° Southwest 363 418 26,300 -780 Descending Atlanta Center
07:56AM 34.8089 -83.0850 218° Southwest 357 411 25,500 -780 Descending Atlanta Center
07:57AM 34.7344 -83.1642 221° Southwest 357 411 24,800 -720 Descending Atlanta Center
07:58AM 34.6558 -83.2483 221° Southwest 369 425 24,100 -420 Descending Atlanta Center
07:59AM 34.5644 -83.3503 223° Southwest 393 452 24,000 -840 Descending Atlanta Center
08:00AM 34.4753 -83.4392 219° Southwest 413 475 22,500 -2,100 Descending Atlanta Center
08:01AM 34.3922 -83.5278 221° Southwest 413 475 19,800 -2,580 Descending Atlanta Center
08:02AM 34.3092 -83.6139 221° Southwest 402 463 17,400 -2,400 Descending Atlanta Center
08:03AM 34.2319 -83.6944 221° Southwest 386 444 15,100 -2,400 Descending Atlanta Center
08:04AM 34.1572 -83.7728 221° Southwest 379 436 12,700 -1,560 Descending Atlanta Center
08:05AM 34.0842 -83.8456 220° Southwest 351 404 12,000 -720 Descending Atlanta Center
08:06AM 34.0258 -83.9083 222° Southwest 308 354 11,300 -660 Descending Atlanta Center
08:07AM 34.0000 -83.9333 219° Southwest 291 335 11,100 -780 Descending Atlanta TRACON
08:08AM 33.9167 -83.9333 180° South 287 330 10,300 -840 Descending Atlanta TRACON
08:09AM 33.8333 -83.9500 189° South 289 333 9,400 -840 Descending Atlanta TRACON
08:09AM 33.8006 -83.9614 196° South 284 327 9,000 -960 Descending Atlanta Center
08:10AM 33.7233 -83.9739 188° South 289 333 8,000 -840 Descending Atlanta Center
08:11AM 33.6586 -83.9889 191° South 263 303 7,400 -600 Descending Atlanta Center
08:12AM 33.6294 -84.0489 240° Southwest 204 235 6,900 -780 Descending Atlanta Center
08:14AM 33.6333 -84.1333 273° West 175 201 5,600 -960 Descending Atlanta TRACON
08:15AM 33.6333 -84.2000 270° West 172 198 4,600 -900 Descending Atlanta TRACON
08:16AM 33.6333 -84.2500 270° West 150 173 3,800 -840 Descending Atlanta TRACON